sensor_id;sensor_type;location;lat;lon;timestamp;pressure;altitude;pressure_sealevel;temperature;humidity
32761;BME280;19126;47.472;7.850;2023-09-07T00:02:02;96852.16;;;15.85;68.34
32761;BME280;19126;47.472;7.850;2023-09-07T00:04:30;96855.22;;;15.82;67.44
32761;BME280;19126;47.472;7.850;2023-09-07T00:06:57;96853.81;;;15.79;67.02
32761;BME280;19126;47.472;7.850;2023-09-07T00:09:25;96854.19;;;15.76;66.58
32761;BME280;19126;47.472;7.850;2023-09-07T00:11:52;96857.03;;;15.75;66.64
32761;BME280;19126;47.472;7.850;2023-09-07T00:14:21;96859.06;;;15.73;67.32
32761;BME280;19126;47.472;7.850;2023-09-07T00:16:49;96853.16;;;15.71;66.87
32761;BME280;19126;47.472;7.850;2023-09-07T00:19:16;96856.81;;;15.70;66.44
32761;BME280;19126;47.472;7.850;2023-09-07T00:21:43;96856.22;;;15.67;67.15
32761;BME280;19126;47.472;7.850;2023-09-07T00:24:11;96855.81;;;15.64;66.54
32761;BME280;19126;47.472;7.850;2023-09-07T00:26:38;96857.00;;;15.61;66.12
32761;BME280;19126;47.472;7.850;2023-09-07T00:29:06;96857.00;;;15.61;66.03
32761;BME280;19126;47.472;7.850;2023-09-07T00:31:34;96861.50;;;15.61;65.99
32761;BME280;19126;47.472;7.850;2023-09-07T00:34:02;96856.41;;;15.59;65.40
32761;BME280;19126;47.472;7.850;2023-09-07T00:36:29;96850.69;;;15.56;65.57
32761;BME280;19126;47.472;7.850;2023-09-07T00:38:56;96854.16;;;15.56;65.20
32761;BME280;19126;47.472;7.850;2023-09-07T00:41:24;96855.38;;;15.53;64.61
32761;BME280;19126;47.472;7.850;2023-09-07T00:43:51;96855.78;;;15.50;64.01
32761;BME280;19126;47.472;7.850;2023-09-07T00:46:18;96854.56;;;15.46;64.91
32761;BME280;19126;47.472;7.850;2023-09-07T00:48:48;96851.28;;;15.44;64.15
32761;BME280;19126;47.472;7.850;2023-09-07T00:51:16;96856.59;;;15.44;64.77
32761;BME280;19126;47.472;7.850;2023-09-07T00:53:43;96854.13;;;15.43;63.72
32761;BME280;19126;47.472;7.850;2023-09-07T00:56:11;96858.78;;;15.41;63.24
32761;BME280;19126;47.472;7.850;2023-09-07T00:58:39;96855.53;;;15.38;62.77
32761;BME280;19126;47.472;7.850;2023-09-07T01:01:06;96851.66;;;15.34;63.16
32761;BME280;19126;47.472;7.850;2023-09-07T01:03:34;96857.34;;;15.31;62.48
32761;BME280;19126;47.472;7.850;2023-09-07T01:06:09;96851.25;;;15.31;62.10
32761;BME280;19126;47.472;7.850;2023-09-07T01:08:44;96845.13;;;15.30;62.14
32761;BME280;19126;47.472;7.850;2023-09-07T01:11:13;96854.06;;;15.29;61.79
32761;BME280;19126;47.472;7.850;2023-09-07T01:13:41;96849.00;;;15.28;62.31
32761;BME280;19126;47.472;7.850;2023-09-07T01:16:10;96853.47;;;15.27;62.16
32761;BME280;19126;47.472;7.850;2023-09-07T01:18:38;96841.63;;;15.23;62.63
32761;BME280;19126;47.472;7.850;2023-09-07T01:21:08;96849.56;;;15.23;62.32
32761;BME280;19126;47.472;7.850;2023-09-07T01:23:40;96845.28;;;15.15;61.99
32761;BME280;19126;47.472;7.850;2023-09-07T01:26:09;96844.06;;;15.18;61.18
32761;BME280;19126;47.472;7.850;2023-09-07T01:28:37;96853.00;;;15.17;61.53
32761;BME280;19126;47.472;7.850;2023-09-07T01:31:05;96846.47;;;15.13;61.76
32761;BME280;19126;47.472;7.850;2023-09-07T01:33:32;96833.88;;;15.08;61.98
32761;BME280;19126;47.472;7.850;2023-09-07T01:36:00;96835.06;;;15.05;61.97
32761;BME280;19126;47.472;7.850;2023-09-07T01:38:27;96840.56;;;15.11;62.09
32761;BME280;19126;47.472;7.850;2023-09-07T01:40:57;96836.50;;;15.08;61.69
32761;BME280;19126;47.472;7.850;2023-09-07T01:43:27;96832.84;;;15.09;61.00
32761;BME280;19126;47.472;7.850;2023-09-07T01:45:54;96833.66;;;15.09;60.93
32761;BME280;19126;47.472;7.850;2023-09-07T01:48:22;96828.56;;;15.08;59.33
32761;BME280;19126;47.472;7.850;2023-09-07T01:50:52;96826.31;;;15.05;58.21
32761;BME280;19126;47.472;7.850;2023-09-07T01:53:20;96833.63;;;15.03;58.59
32761;BME280;19126;47.472;7.850;2023-09-07T01:55:47;96828.94;;;14.98;58.29
32761;BME280;19126;47.472;7.850;2023-09-07T01:58:16;96831.34;;;14.93;58.48
32761;BME280;19126;47.472;7.850;2023-09-07T02:00:43;96827.91;;;14.92;58.13
32761;BME280;19126;47.472;7.850;2023-09-07T02:03:11;96830.72;;;14.91;58.01
32761;BME280;19126;47.472;7.850;2023-09-07T02:05:39;96827.47;;;14.89;57.55
32761;BME280;19126;47.472;7.850;2023-09-07T02:08:07;96831.94;;;14.88;58.17
32761;BME280;19126;47.472;7.850;2023-09-07T02:10:34;96832.13;;;14.87;57.37
32761;BME280;19126;47.472;7.850;2023-09-07T02:13:01;96826.22;;;14.85;58.53
32761;BME280;19126;47.472;7.850;2023-09-07T02:15:31;96830.72;;;14.84;58.23
32761;BME280;19126;47.472;7.850;2023-09-07T02:17:59;96831.91;;;14.82;58.15
32761;BME280;19126;47.472;7.850;2023-09-07T02:20:26;96821.94;;;14.77;58.82
32761;BME280;19126;47.472;7.850;2023-09-07T02:22:55;96822.72;;;14.77;58.37
32761;BME280;19126;47.472;7.850;2023-09-07T02:25:22;96832.50;;;14.77;59.22
32761;BME280;19126;47.472;7.850;2023-09-07T02:27:50;96823.13;;;14.74;58.76
32761;BME280;19126;47.472;7.850;2023-09-07T02:30:17;96824.97;;;14.74;59.37
32761;BME280;19126;47.472;7.850;2023-09-07T02:32:46;96825.34;;;14.71;59.51
32761;BME280;19126;47.472;7.850;2023-09-07T02:35:13;96829.00;;;14.70;59.07
32761;BME280;19126;47.472;7.850;2023-09-07T02:37:41;96824.88;;;14.67;58.19
32761;BME280;19126;47.472;7.850;2023-09-07T02:40:09;96823.25;;;14.66;58.57
32761;BME280;19126;47.472;7.850;2023-09-07T02:42:37;96824.47;;;14.63;57.94
32761;BME280;19126;47.472;7.850;2023-09-07T02:45:06;96825.88;;;14.59;58.71
32761;BME280;19126;47.472;7.850;2023-09-07T02:47:35;96818.94;;;14.58;59.24
32761;BME280;19126;47.472;7.850;2023-09-07T02:50:04;96818.94;;;14.58;59.00
32761;BME280;19126;47.472;7.850;2023-09-07T02:52:32;96822.78;;;14.56;59.79
32761;BME280;19126;47.472;7.850;2023-09-07T02:54:59;96822.34;;;14.52;59.96
32761;BME280;19126;47.472;7.850;2023-09-07T02:57:27;96830.47;;;14.50;60.33
32761;BME280;19126;47.472;7.850;2023-09-07T02:59:54;96831.88;;;14.46;60.75
32761;BME280;19126;47.472;7.850;2023-09-07T03:02:22;96826.16;;;14.43;61.23
32761;BME280;19126;47.472;7.850;2023-09-07T03:04:53;96824.72;;;14.40;60.51
32761;BME280;19126;47.472;7.850;2023-09-07T03:07:26;96826.16;;;14.43;60.42
32761;BME280;19126;47.472;7.850;2023-09-07T03:09:53;96819.22;;;14.42;61.12
32761;BME280;19126;47.472;7.850;2023-09-07T03:12:20;96826.53;;;14.40;60.37
32761;BME280;19126;47.472;7.850;2023-09-07T03:14:48;96820.25;;;14.41;61.10
32761;BME280;19126;47.472;7.850;2023-09-07T03:17:16;96821.47;;;14.38;60.96
32761;BME280;19126;47.472;7.850;2023-09-07T03:19:44;96825.13;;;14.37;60.45
32761;BME280;19126;47.472;7.850;2023-09-07T03:22:11;96824.50;;;14.35;60.80
32761;BME280;19126;47.472;7.850;2023-09-07T03:24:40;96824.66;;;14.33;60.39
32761;BME280;19126;47.472;7.850;2023-09-07T03:27:08;96817.50;;;14.27;60.66
32761;BME280;19126;47.472;7.850;2023-09-07T03:29:37;96823.63;;;14.28;61.33
32761;BME280;19126;47.472;7.850;2023-09-07T03:32:05;96829.91;;;14.27;61.19
32761;BME280;19126;47.472;7.850;2023-09-07T03:34:34;96827.44;;;14.25;61.26
32761;BME280;19126;47.472;7.850;2023-09-07T03:37:01;96829.47;;;14.23;62.24
32761;BME280;19126;47.472;7.850;2023-09-07T03:39:32;96817.28;;;14.22;62.42
32761;BME280;19126;47.472;7.850;2023-09-07T03:42:00;96819.91;;;14.22;61.79
32761;BME280;19126;47.472;7.850;2023-09-07T03:44:28;96826.19;;;14.21;62.95
32761;BME280;19126;47.472;7.850;2023-09-07T03:46:55;96830.69;;;14.20;63.01
32761;BME280;19126;47.472;7.850;2023-09-07T03:49:23;96827.41;;;14.18;63.92
32761;BME280;19126;47.472;7.850;2023-09-07T03:51:50;96827.81;;;14.15;63.52
32761;BME280;19126;47.472;7.850;2023-09-07T03:54:17;96827.19;;;14.13;63.68
32761;BME280;19126;47.472;7.850;2023-09-07T03:56:44;96825.34;;;14.14;64.01
32761;BME280;19126;47.472;7.850;2023-09-07T03:59:13;96824.09;;;14.10;64.75
32761;BME280;19126;47.472;7.850;2023-09-07T04:01:40;96828.56;;;14.09;64.43
32761;BME280;19126;47.472;7.850;2023-09-07T04:04:08;96824.09;;;14.10;65.00
32761;BME280;19126;47.472;7.850;2023-09-07T04:06:35;96826.94;;;14.08;64.32
32761;BME280;19126;47.472;7.850;2023-09-07T04:09:03;96824.47;;;14.06;65.19
32761;BME280;19126;47.472;7.850;2023-09-07T04:11:30;96819.81;;;14.09;64.46
32761;BME280;19126;47.472;7.850;2023-09-07T04:13:58;96821.59;;;14.01;65.67
32761;BME280;19126;47.472;7.850;2023-09-07T04:16:26;96830.97;;;14.04;66.70
32761;BME280;19126;47.472;7.850;2023-09-07T04:18:54;96820.78;;;14.01;66.34
32761;BME280;19126;47.472;7.850;2023-09-07T04:21:21;96825.88;;;14.02;67.01
32761;BME280;19126;47.472;7.850;2023-09-07T04:23:48;96822.81;;;13.99;66.63
32761;BME280;19126;47.472;7.850;2023-09-07T04:26:15;96820.72;;;13.94;65.46
32761;BME280;19126;47.472;7.850;2023-09-07T04:28:43;96824.81;;;13.97;66.14
32761;BME280;19126;47.472;7.850;2023-09-07T04:31:10;96814.81;;;13.92;65.53
32761;BME280;19126;47.472;7.850;2023-09-07T04:33:39;96814.00;;;13.91;66.14
32761;BME280;19126;47.472;7.850;2023-09-07T04:36:10;96820.91;;;13.92;65.82
32761;BME280;19126;47.472;7.850;2023-09-07T04:38:38;96817.66;;;13.90;65.50
32761;BME280;19126;47.472;7.850;2023-09-07T04:41:07;96819.91;;;13.94;65.65
32761;BME280;19126;47.472;7.850;2023-09-07T04:43:34;96829.25;;;13.96;65.77
32761;BME280;19126;47.472;7.850;2023-09-07T04:46:02;96829.25;;;13.96;66.20
32761;BME280;19126;47.472;7.850;2023-09-07T04:48:29;96824.22;;;14.01;66.76
32761;BME280;19126;47.472;7.850;2023-09-07T04:51:01;96833.53;;;13.97;68.17
32761;BME280;19126;47.472;7.850;2023-09-07T04:53:30;96833.91;;;13.94;67.48
32761;BME280;19126;47.472;7.850;2023-09-07T04:55:58;96834.13;;;13.92;68.16
32761;BME280;19126;47.472;7.850;2023-09-07T04:58:26;96827.22;;;13.91;67.57
32761;BME280;19126;47.472;7.850;2023-09-07T05:00:53;96829.84;;;13.91;67.15
32761;BME280;19126;47.472;7.850;2023-09-07T05:03:21;96831.66;;;13.91;66.81
32761;BME280;19126;47.472;7.850;2023-09-07T05:05:53;96828.22;;;13.90;66.79
32761;BME280;19126;47.472;7.850;2023-09-07T05:08:22;96829.22;;;13.89;66.63
32761;BME280;19126;47.472;7.850;2023-09-07T05:10:55;96827.84;;;13.94;66.79
32761;BME280;19126;47.472;7.850;2023-09-07T05:13:23;96835.19;;;13.98;67.47
32761;BME280;19126;47.472;7.850;2023-09-07T05:15:53;96833.03;;;14.09;67.33
32761;BME280;19126;47.472;7.850;2023-09-07T05:18:20;96842.34;;;14.04;68.76
32761;BME280;19126;47.472;7.850;2023-09-07T05:20:48;96838.91;;;14.04;68.30
32761;BME280;19126;47.472;7.850;2023-09-07T05:23:18;96844.59;;;14.07;68.31
32761;BME280;19126;47.472;7.850;2023-09-07T05:25:48;96848.88;;;14.09;68.08
32761;BME280;19126;47.472;7.850;2023-09-07T05:28:16;96845.22;;;14.10;68.03
32761;BME280;19126;47.472;7.850;2023-09-07T05:30:43;96854.41;;;14.14;67.75
32761;BME280;19126;47.472;7.850;2023-09-07T05:33:13;96858.88;;;14.13;67.61
32761;BME280;19126;47.472;7.850;2023-09-07T05:35:41;96856.03;;;14.15;68.05
32761;BME280;19126;47.472;7.850;2023-09-07T05:38:09;96859.31;;;14.17;67.10
32761;BME280;19126;47.472;7.850;2023-09-07T05:40:37;96862.63;;;14.26;67.81
32761;BME280;19126;47.472;7.850;2023-09-07T05:43:07;96862.00;;;14.24;67.73
32761;BME280;19126;47.472;7.850;2023-09-07T05:45:38;96859.78;;;14.27;67.82
32761;BME280;19126;47.472;7.850;2023-09-07T05:48:06;96867.53;;;14.29;68.11
32761;BME280;19126;47.472;7.850;2023-09-07T05:50:35;96865.69;;;14.29;66.94
32761;BME280;19126;47.472;7.850;2023-09-07T05:53:03;96863.69;;;14.31;67.43
32761;BME280;19126;47.472;7.850;2023-09-07T05:55:31;96863.50;;;14.33;66.33
32761;BME280;19126;47.472;7.850;2023-09-07T05:57:59;96869.22;;;14.36;66.68
32761;BME280;19126;47.472;7.850;2023-09-07T06:00:28;96866.38;;;14.38;65.05
32761;BME280;19126;47.472;7.850;2023-09-07T06:02:55;96863.34;;;14.41;65.54
32761;BME280;19126;47.472;7.850;2023-09-07T06:05:22;96860.13;;;14.46;65.02
32761;BME280;19126;47.472;7.850;2023-09-07T06:07:50;96868.50;;;14.49;65.09
32761;BME280;19126;47.472;7.850;2023-09-07T06:10:17;96862.81;;;14.53;65.19
32761;BME280;19126;47.472;7.850;2023-09-07T06:12:45;96870.16;;;14.57;64.23
32761;BME280;19126;47.472;7.850;2023-09-07T06:15:12;96872.06;;;14.63;62.95
32761;BME280;19126;47.472;7.850;2023-09-07T06:17:41;96868.66;;;14.70;63.41
32761;BME280;19126;47.472;7.850;2023-09-07T06:20:10;96863.09;;;14.93;62.30
32761;BME280;19126;47.472;7.850;2023-09-07T06:22:37;96866.75;;;15.41;60.02
32761;BME280;19126;47.472;7.850;2023-09-07T06:25:05;96863.84;;;15.91;55.94
32761;BME280;19126;47.472;7.850;2023-09-07T06:27:32;96858.97;;;16.35;58.47
32761;BME280;19126;47.472;7.850;2023-09-07T06:29:59;96859.72;;;16.69;72.83
32761;BME280;19126;47.472;7.850;2023-09-07T06:32:27;96867.78;;;17.14;86.55
32761;BME280;19126;47.472;7.850;2023-09-07T06:34:55;96868.44;;;17.55;99.31
32761;BME280;19126;47.472;7.850;2023-09-07T06:37:23;96874.13;;;17.91;100.00
32761;BME280;19126;47.472;7.850;2023-09-07T06:39:51;96872.84;;;18.33;100.00
32761;BME280;19126;47.472;7.850;2023-09-07T06:42:18;96869.88;;;18.66;100.00
32761;BME280;19126;47.472;7.850;2023-09-07T06:44:45;96874.19;;;18.86;100.00
32761;BME280;19126;47.472;7.850;2023-09-07T06:47:12;96876.81;;;19.30;100.00
32761;BME280;19126;47.472;7.850;2023-09-07T06:49:40;96869.22;;;19.95;100.00
32761;BME280;19126;47.472;7.850;2023-09-07T06:52:09;96876.00;;;20.45;100.00
32761;BME280;19126;47.472;7.850;2023-09-07T06:54:36;96877.53;;;20.88;100.00
32761;BME280;19126;47.472;7.850;2023-09-07T06:57:06;96882.91;;;21.29;100.00
32761;BME280;19126;47.472;7.850;2023-09-07T06:59:34;96880.47;;;21.69;100.00
32761;BME280;19126;47.472;7.850;2023-09-07T07:02:02;96879.75;;;22.02;97.25
32761;BME280;19126;47.472;7.850;2023-09-07T07:04:30;96891.50;;;22.35;92.90
32761;BME280;19126;47.472;7.850;2023-09-07T07:06:58;96893.47;;;22.57;85.52
32761;BME280;19126;47.472;7.850;2023-09-07T07:09:28;96884.38;;;22.75;84.23
32761;BME280;19126;47.472;7.850;2023-09-07T07:11:55;96893.91;;;22.88;81.07
32761;BME280;19126;47.472;7.850;2023-09-07T07:14:23;96893.00;;;23.00;82.23
32761;BME280;19126;47.472;7.850;2023-09-07T07:16:50;96899.13;;;23.17;84.31
32761;BME280;19126;47.472;7.850;2023-09-07T07:19:17;96887.06;;;23.37;83.00
32761;BME280;19126;47.472;7.850;2023-09-07T07:21:44;96898.41;;;23.66;81.16
32761;BME280;19126;47.472;7.850;2023-09-07T07:24:12;96893.94;;;23.77;78.16
32761;BME280;19126;47.472;7.850;2023-09-07T07:26:41;96901.22;;;24.04;82.10
32761;BME280;19126;47.472;7.850;2023-09-07T07:29:09;96898.88;;;24.13;75.50
32761;BME280;19126;47.472;7.850;2023-09-07T07:31:37;96904.03;;;24.52;78.11
32761;BME280;19126;47.472;7.850;2023-09-07T07:34:04;96912.72;;;24.70;73.79
32761;BME280;19126;47.472;7.850;2023-09-07T07:36:31;96909.97;;;24.92;72.71
32761;BME280;19126;47.472;7.850;2023-09-07T07:38:59;96902.00;;;25.13;71.48
32761;BME280;19126;47.472;7.850;2023-09-07T07:41:26;96902.06;;;25.23;70.21
32761;BME280;19126;47.472;7.850;2023-09-07T07:43:55;96905.84;;;25.33;66.16
32761;BME280;19126;47.472;7.850;2023-09-07T07:46:22;96895.81;;;25.12;66.45
32761;BME280;19126;47.472;7.850;2023-09-07T07:48:49;96899.94;;;25.30;68.93
32761;BME280;19126;47.472;7.850;2023-09-07T07:51:17;96897.94;;;25.10;65.99
32761;BME280;19126;47.472;7.850;2023-09-07T07:53:44;96897.41;;;25.08;68.25
32761;BME280;19126;47.472;7.850;2023-09-07T07:56:15;96901.28;;;25.28;68.92
32761;BME280;19126;47.472;7.850;2023-09-07T07:58:43;96898.88;;;25.37;68.49
32761;BME280;19126;47.472;7.850;2023-09-07T08:01:15;96907.09;;;25.73;68.54
32761;BME280;19126;47.472;7.850;2023-09-07T08:03:43;96898.81;;;26.00;65.97
32761;BME280;19126;47.472;7.850;2023-09-07T08:06:10;96890.78;;;26.16;64.90
32761;BME280;19126;47.472;7.850;2023-09-07T08:08:39;96899.06;;;26.09;64.37
32761;BME280;19126;47.472;7.850;2023-09-07T08:11:07;96895.09;;;26.38;69.23
32761;BME280;19126;47.472;7.850;2023-09-07T08:13:35;96895.06;;;26.69;68.24
32761;BME280;19126;47.472;7.850;2023-09-07T08:16:03;96890.75;;;26.88;64.78
32761;BME280;19126;47.472;7.850;2023-09-07T08:18:34;96893.34;;;27.19;66.34
32761;BME280;19126;47.472;7.850;2023-09-07T08:21:01;96893.53;;;27.49;63.27
32761;BME280;19126;47.472;7.850;2023-09-07T08:23:29;96888.88;;;27.60;63.62
32761;BME280;19126;47.472;7.850;2023-09-07T08:25:56;96896.69;;;27.67;63.85
32761;BME280;19126;47.472;7.850;2023-09-07T08:28:24;96900.91;;;27.83;62.32
32761;BME280;19126;47.472;7.850;2023-09-07T08:30:53;96902.50;;;27.84;61.73
32761;BME280;19126;47.472;7.850;2023-09-07T08:33:20;96893.31;;;27.85;60.97
32761;BME280;19126;47.472;7.850;2023-09-07T08:35:57;96894.25;;;27.65;59.67
32761;BME280;19126;47.472;7.850;2023-09-07T08:38:26;96896.63;;;27.77;62.72
32761;BME280;19126;47.472;7.850;2023-09-07T08:40:54;96889.28;;;27.88;64.59
32761;BME280;19126;47.472;7.850;2023-09-07T08:43:22;96886.88;;;27.81;59.86
32761;BME280;19126;47.472;7.850;2023-09-07T08:45:55;96890.63;;;27.85;61.80
32761;BME280;19126;47.472;7.850;2023-09-07T08:48:27;96893.44;;;28.10;59.10
32761;BME280;19126;47.472;7.850;2023-09-07T08:50:56;96892.56;;;28.19;61.44
32761;BME280;19126;47.472;7.850;2023-09-07T08:53:25;96892.38;;;28.45;62.16
32761;BME280;19126;47.472;7.850;2023-09-07T08:55:52;96877.50;;;28.77;62.01
32761;BME280;19126;47.472;7.850;2023-09-07T08:58:20;96881.75;;;28.54;56.66
32761;BME280;19126;47.472;7.850;2023-09-07T09:00:47;96883.22;;;28.71;59.39
32761;BME280;19126;47.472;7.850;2023-09-07T09:03:15;96882.28;;;28.86;60.56
32761;BME280;19126;47.472;7.850;2023-09-07T09:05:43;96889.25;;;28.92;60.00
32761;BME280;19126;47.472;7.850;2023-09-07T09:08:12;96892.41;;;28.99;57.89
32761;BME280;19126;47.472;7.850;2023-09-07T09:10:40;96885.22;;;28.89;57.05
32761;BME280;19126;47.472;7.850;2023-09-07T09:13:07;96884.53;;;29.03;60.54
32761;BME280;19126;47.472;7.850;2023-09-07T09:15:37;96881.06;;;29.21;61.31
32761;BME280;19126;47.472;7.850;2023-09-07T09:18:11;96881.53;;;29.29;58.06
32761;BME280;19126;47.472;7.850;2023-09-07T09:20:39;96878.59;;;29.49;59.23
32761;BME280;19126;47.472;7.850;2023-09-07T09:23:06;96875.75;;;29.41;58.61
32761;BME280;19126;47.472;7.850;2023-09-07T09:25:35;96871.59;;;29.24;58.04
32761;BME280;19126;47.472;7.850;2023-09-07T09:28:04;96874.22;;;29.29;56.46
32761;BME280;19126;47.472;7.850;2023-09-07T09:30:32;96877.81;;;29.49;57.76
32761;BME280;19126;47.472;7.850;2023-09-07T09:32:59;96877.34;;;29.42;56.33
32761;BME280;19126;47.472;7.850;2023-09-07T09:35:27;96873.47;;;29.23;58.97
32761;BME280;19126;47.472;7.850;2023-09-07T09:37:55;96873.59;;;29.37;57.49
32761;BME280;19126;47.472;7.850;2023-09-07T09:40:23;96875.16;;;29.63;56.11
32761;BME280;19126;47.472;7.850;2023-09-07T09:42:52;96871.88;;;29.66;56.23
32761;BME280;19126;47.472;7.850;2023-09-07T09:45:23;96870.19;;;30.08;58.59
32761;BME280;19126;47.472;7.850;2023-09-07T09:47:51;96870.78;;;30.38;56.74
32761;BME280;19126;47.472;7.850;2023-09-07T09:50:19;96864.97;;;30.78;58.19
32761;BME280;19126;47.472;7.850;2023-09-07T09:52:53;96860.38;;;31.07;53.62
32761;BME280;19126;47.472;7.850;2023-09-07T09:55:22;96862.25;;;31.06;53.62
32761;BME280;19126;47.472;7.850;2023-09-07T09:57:52;96858.16;;;31.09;53.06
32761;BME280;19126;47.472;7.850;2023-09-07T10:00:23;96851.22;;;31.31;55.72
32761;BME280;19126;47.472;7.850;2023-09-07T10:03:05;96852.72;;;31.37;52.91
32761;BME280;19126;47.472;7.850;2023-09-07T10:05:34;96854.09;;;31.48;52.08
32761;BME280;19126;47.472;7.850;2023-09-07T10:08:09;96848.25;;;31.55;53.49
32761;BME280;19126;47.472;7.850;2023-09-07T10:10:37;96847.88;;;31.48;52.00
32761;BME280;19126;47.472;7.850;2023-09-07T10:13:06;96848.06;;;31.51;54.32
32761;BME280;19126;47.472;7.850;2023-09-07T10:15:34;96842.69;;;31.60;54.27
32761;BME280;19126;47.472;7.850;2023-09-07T10:18:10;96853.50;;;31.51;51.88
32761;BME280;19126;47.472;7.850;2023-09-07T10:20:50;96844.88;;;31.35;52.59
32761;BME280;19126;47.472;7.850;2023-09-07T10:23:18;96842.75;;;31.46;55.46
32761;BME280;19126;47.472;7.850;2023-09-07T10:25:49;96842.59;;;31.28;52.96
32761;BME280;19126;47.472;7.850;2023-09-07T10:28:23;96840.16;;;31.41;54.72
32761;BME280;19126;47.472;7.850;2023-09-07T10:31:04;96843.88;;;31.45;55.91
32761;BME280;19126;47.472;7.850;2023-09-07T10:33:34;96839.50;;;31.58;57.47
32761;BME280;19126;47.472;7.850;2023-09-07T10:36:02;96840.78;;;31.75;59.15
32761;BME280;19126;47.472;7.850;2023-09-07T10:38:31;96839.34;;;31.91;54.75
32761;BME280;19126;47.472;7.850;2023-09-07T10:41:00;96837.13;;;31.93;53.45
32761;BME280;19126;47.472;7.850;2023-09-07T10:43:30;96840.38;;;31.67;51.63
32761;BME280;19126;47.472;7.850;2023-09-07T10:45:59;96837.72;;;31.39;52.10
32761;BME280;19126;47.472;7.850;2023-09-07T10:48:30;96830.13;;;31.27;53.36
32761;BME280;19126;47.472;7.850;2023-09-07T10:50:58;96830.97;;;31.51;56.39
32761;BME280;19126;47.472;7.850;2023-09-07T10:53:28;96836.38;;;32.01;59.59
32761;BME280;19126;47.472;7.850;2023-09-07T10:55:58;96830.19;;;32.33;55.94
32761;BME280;19126;47.472;7.850;2023-09-07T10:58:29;96829.53;;;32.67;53.26
32761;BME280;19126;47.472;7.850;2023-09-07T11:00:57;96828.06;;;32.52;52.56
32761;BME280;19126;47.472;7.850;2023-09-07T11:03:27;96833.41;;;32.35;51.53
32761;BME280;19126;47.472;7.850;2023-09-07T11:05:58;96830.22;;;32.19;51.48
32761;BME280;19126;47.472;7.850;2023-09-07T11:08:28;96825.41;;;32.15;51.75
32761;BME280;19126;47.472;7.850;2023-09-07T11:10:56;96823.88;;;32.23;57.11
32761;BME280;19126;47.472;7.850;2023-09-07T11:13:25;96818.56;;;32.41;52.74
32761;BME280;19126;47.472;7.850;2023-09-07T11:15:57;96823.06;;;32.45;53.94
32761;BME280;19126;47.472;7.850;2023-09-07T11:18:25;96822.56;;;32.43;52.21
32761;BME280;19126;47.472;7.850;2023-09-07T11:20:54;96810.97;;;32.61;54.41
32761;BME280;19126;47.472;7.850;2023-09-07T11:23:22;96812.31;;;32.40;52.80
32761;BME280;19126;47.472;7.850;2023-09-07T11:25:50;96813.63;;;32.52;53.70
32761;BME280;19126;47.472;7.850;2023-09-07T11:28:19;96816.63;;;32.73;56.07
32761;BME280;19126;47.472;7.850;2023-09-07T11:30:52;96808.38;;;32.87;53.45
32761;BME280;19126;47.472;7.850;2023-09-07T11:33:22;96808.06;;;32.97;55.42
32761;BME280;19126;47.472;7.850;2023-09-07T11:35:50;96811.47;;;33.12;54.95
32761;BME280;19126;47.472;7.850;2023-09-07T11:38:18;96807.97;;;33.20;51.65
32761;BME280;19126;47.472;7.850;2023-09-07T11:40:45;96811.97;;;33.14;54.06
32761;BME280;19126;47.472;7.850;2023-09-07T11:43:13;96802.19;;;33.13;53.13
32761;BME280;19126;47.472;7.850;2023-09-07T11:45:42;96807.44;;;33.00;53.91
32761;BME280;19126;47.472;7.850;2023-09-07T11:48:10;96803.13;;;32.99;51.04
32761;BME280;19126;47.472;7.850;2023-09-07T11:50:40;96798.28;;;32.87;51.54
32761;BME280;19126;47.472;7.850;2023-09-07T11:53:07;96801.44;;;32.81;52.80
32761;BME280;19126;47.472;7.850;2023-09-07T11:55:35;96805.59;;;32.78;50.52
32761;BME280;19126;47.472;7.850;2023-09-07T11:58:04;96797.88;;;32.71;51.01
32761;BME280;19126;47.472;7.850;2023-09-07T12:00:31;96798.84;;;32.67;51.02
32761;BME280;19126;47.472;7.850;2023-09-07T12:03:01;96796.56;;;32.60;51.07
32761;BME280;19126;47.472;7.850;2023-09-07T12:05:28;96792.44;;;32.63;51.49
32761;BME280;19126;47.472;7.850;2023-09-07T12:07:57;96788.88;;;32.62;52.66
32761;BME280;19126;47.472;7.850;2023-09-07T12:10:25;96798.16;;;32.61;51.25
32761;BME280;19126;47.472;7.850;2023-09-07T12:12:52;96796.63;;;32.78;53.19
32761;BME280;19126;47.472;7.850;2023-09-07T12:15:20;96794.47;;;32.88;50.30
32761;BME280;19126;47.472;7.850;2023-09-07T12:17:47;96793.75;;;32.83;50.42
32761;BME280;19126;47.472;7.850;2023-09-07T12:20:20;96791.25;;;32.86;52.57
32761;BME280;19126;47.472;7.850;2023-09-07T12:22:52;96787.97;;;32.67;51.16
32761;BME280;19126;47.472;7.850;2023-09-07T12:25:21;96782.19;;;32.59;53.47
32761;BME280;19126;47.472;7.850;2023-09-07T12:27:48;96779.88;;;32.44;51.43
32761;BME280;19126;47.472;7.850;2023-09-07T12:30:17;96778.28;;;32.43;52.77
32761;BME280;19126;47.472;7.850;2023-09-07T12:32:46;96774.59;;;32.48;49.74
32761;BME280;19126;47.472;7.850;2023-09-07T12:35:13;96780.94;;;32.34;53.40
32761;BME280;19126;47.472;7.850;2023-09-07T12:37:41;96774.81;;;32.28;54.09
32761;BME280;19126;47.472;7.850;2023-09-07T12:40:11;96778.84;;;32.31;51.48
32761;BME280;19126;47.472;7.850;2023-09-07T12:42:45;96768.50;;;32.42;52.19
32761;BME280;19126;47.472;7.850;2023-09-07T12:45:13;96766.56;;;32.42;53.25
32761;BME280;19126;47.472;7.850;2023-09-07T12:47:41;96765.66;;;32.56;50.96
32761;BME280;19126;47.472;7.850;2023-09-07T12:50:11;96763.59;;;32.53;52.80
32761;BME280;19126;47.472;7.850;2023-09-07T12:52:40;96763.72;;;32.16;51.72
32761;BME280;19126;47.472;7.850;2023-09-07T12:55:08;96768.97;;;32.12;52.42
32761;BME280;19126;47.472;7.850;2023-09-07T12:57:36;96768.00;;;32.08;50.43
32761;BME280;19126;47.472;7.850;2023-09-07T13:00:07;96767.84;;;31.82;51.04
32761;BME280;19126;47.472;7.850;2023-09-07T13:02:35;96763.94;;;31.74;51.34
32761;BME280;19126;47.472;7.850;2023-09-07T13:05:02;96764.44;;;31.76;52.95
32761;BME280;19126;47.472;7.850;2023-09-07T13:07:31;96758.81;;;31.95;48.80